createdAt,value
2023-03-17T00:00:46.757Z,99.90
2023-03-17T00:03:27.059Z,99.90
2023-03-17T00:05:55.869Z,99.90
2023-03-17T00:08:29.238Z,99.90
2023-03-17T00:10:56.594Z,99.90
2023-03-17T00:13:23.956Z,99.90
2023-03-17T00:15:56.946Z,99.90
2023-03-17T00:20:53.083Z,99.90
2023-03-17T00:23:25.375Z,99.90
2023-03-17T00:25:54.203Z,99.90
2023-03-17T00:28:24.633Z,99.90
2023-03-17T00:30:56.454Z,99.90
2023-03-17T00:33:27.906Z,99.90
2023-03-17T00:35:57.154Z,99.90
2023-03-17T00:48:21.068Z,99.90
2023-03-17T00:50:50.067Z,99.90
2023-03-17T00:53:23.187Z,99.90
2023-03-17T00:55:50.270Z,99.90
2023-03-17T00:58:34.411Z,99.90
2023-03-17T01:03:29.609Z,99.90
2023-03-17T01:18:22.794Z,99.90
2023-03-17T01:20:51.944Z,99.90
2023-03-17T01:23:19.236Z,99.90
2023-03-17T01:25:46.303Z,99.90
2023-03-17T01:28:19.014Z,99.90
2023-03-17T01:30:46.991Z,99.90
2023-03-17T01:35:43.778Z,99.90
2023-03-17T01:38:11.855Z,99.90
2023-03-17T01:40:46.811Z,99.90
2023-03-17T01:43:17.432Z,99.90
2023-03-17T01:46:30.932Z,99.90
2023-03-17T01:49:21.797Z,99.90
2023-03-17T01:52:10.263Z,99.90
2023-03-17T01:55:08.066Z,99.90
2023-03-17T01:57:40.069Z,99.90
2023-03-17T02:00:16.330Z,99.90
2023-03-17T02:02:48.936Z,99.90
2023-03-17T02:05:21.537Z,99.90
2023-03-17T02:10:20.610Z,99.90
2023-03-17T02:12:54.085Z,99.90
2023-03-17T02:17:50.429Z,99.90
2023-03-17T02:22:49.532Z,99.90
2023-03-17T02:25:19.808Z,99.90
2023-03-17T02:27:51.360Z,99.90
2023-03-17T02:30:23.516Z,99.90
2023-03-17T02:32:51.059Z,99.90
2023-03-17T02:35:19.558Z,99.90
2023-03-17T02:40:16.576Z,99.90
2023-03-17T02:45:12.992Z,99.90
2023-03-17T02:50:12.160Z,99.90
2023-03-17T02:52:39.115Z,99.90
2023-03-17T02:55:08.287Z,99.90
2023-03-17T02:57:38.381Z,99.90
2023-03-17T03:00:06.007Z,99.90
2023-03-17T03:14:50.448Z,99.90
2023-03-17T03:24:39.843Z,99.90
2023-03-17T03:27:07.145Z,99.90
2023-03-17T03:29:34.430Z,99.90
2023-03-17T03:39:24.106Z,99.90
2023-03-17T03:41:51.125Z,99.90
2023-03-17T03:46:45.803Z,99.90
2023-03-17T03:51:40.579Z,99.90
2023-03-17T03:54:07.640Z,99.90
2023-03-17T03:59:03.041Z,99.90
2023-03-17T04:01:30.059Z,99.90
2023-03-17T04:06:24.330Z,99.90
2023-03-17T04:11:18.647Z,99.90
2023-03-17T04:18:41.359Z,99.90
2023-03-17T04:23:36.292Z,99.90
2023-03-17T04:26:04.166Z,99.90
2023-03-17T04:28:31.400Z,99.90
2023-03-17T04:30:58.350Z,99.90
2023-03-17T04:38:21.775Z,99.90
2023-03-17T04:40:50.971Z,99.90
2023-03-17T04:45:45.312Z,99.90
2023-03-17T04:48:12.335Z,99.90
2023-03-17T04:53:06.809Z,99.90
2023-03-17T04:58:01.356Z,99.90
2023-03-17T05:05:23.575Z,99.90
2023-03-17T05:07:50.803Z,99.90
2023-03-17T05:12:45.414Z,99.90
2023-03-17T05:20:09.647Z,99.90
2023-03-17T05:27:33.802Z,99.90
2023-03-17T05:30:00.929Z,99.90
2023-03-17T05:32:27.937Z,99.90
2023-03-17T05:44:44.517Z,99.90
2023-03-17T05:54:33.736Z,99.90
2023-03-17T06:06:51.782Z,99.90
2023-03-17T06:09:19.285Z,99.90
2023-03-17T06:19:09.128Z,99.90
2023-03-17T06:38:50.897Z,99.90
2023-03-17T06:43:46.592Z,99.90
2023-03-17T06:48:41.206Z,99.90
2023-03-17T07:01:00.382Z,99.90
2023-03-17T07:03:28.007Z,99.90
2023-03-17T07:13:17.079Z,99.90
2023-03-17T07:15:45.483Z,99.90
2023-03-17T07:20:41.168Z,99.90
2023-03-17T07:23:15.628Z,99.90
2023-03-17T07:25:46.033Z,99.90
2023-03-17T07:30:46.832Z,99.90
2023-03-17T07:38:10.194Z,99.90
2023-03-17T07:45:33.476Z,99.90
2023-03-17T07:55:24.176Z,99.90
2023-03-17T08:00:21.759Z,99.90
2023-03-17T08:03:03.192Z,99.90
2023-03-17T08:05:35.937Z,99.90
2023-03-17T08:15:27.267Z,99.90
2023-03-17T08:17:54.203Z,99.90
2023-03-17T08:20:21.824Z,99.90
2023-03-17T08:22:48.856Z,99.90
2023-03-17T08:27:43.404Z,99.90
2023-03-17T08:30:12.590Z,99.90
2023-03-17T08:32:39.595Z,99.90
2023-03-17T08:35:06.931Z,99.90
2023-03-17T08:40:01.498Z,99.90
2023-03-17T08:42:28.519Z,99.90
2023-03-17T08:44:55.723Z,99.90
2023-03-17T08:57:15.689Z,99.90
2023-03-17T08:59:42.774Z,99.90
2023-03-17T09:02:11.983Z,99.90
2023-03-17T09:04:40.313Z,99.90
2023-03-17T09:12:06.598Z,99.90
2023-03-17T09:14:42.821Z,99.90
2023-03-17T09:17:11.319Z,99.90
2023-03-17T09:19:38.894Z,99.90
2023-03-17T09:24:34.200Z,99.90
2023-03-17T09:29:28.573Z,99.90
2023-03-17T09:31:56.989Z,99.90
2023-03-17T09:36:54.603Z,99.90
2023-03-17T09:39:24.177Z,99.90
2023-03-17T09:42:01.900Z,99.90
2023-03-17T09:47:08.465Z,99.90
2023-03-17T09:49:47.504Z,99.90
2023-03-17T09:52:25.995Z,99.90
2023-03-17T09:57:39.619Z,99.90
2023-03-17T10:00:16.896Z,99.90
2023-03-17T10:02:45.419Z,99.90
2023-03-17T10:05:26.261Z,99.90
2023-03-17T10:08:06.314Z,99.90
2023-03-17T10:11:13.368Z,99.90
2023-03-17T10:13:52.214Z,99.90
2023-03-17T10:16:42.783Z,99.90
2023-03-17T10:19:41.572Z,99.90
2023-03-17T10:22:25.277Z,99.90
2023-03-17T10:24:58.006Z,96.10
2023-03-17T10:27:26.274Z,99.90
2023-03-17T10:32:20.830Z,99.90
2023-03-17T10:34:48.799Z,99.90
2023-03-17T10:37:23.379Z,99.90
2023-03-17T10:39:59.718Z,99.90
2023-03-17T10:42:29.806Z,99.90
2023-03-17T10:45:07.502Z,97.50
2023-03-17T10:47:39.871Z,97.10
2023-03-17T10:50:54.385Z,87.30
2023-03-17T10:53:30.585Z,96.00
2023-03-17T10:56:07.437Z,96.50
2023-03-17T10:58:44.530Z,85.30
2023-03-17T11:01:34.678Z,84.70
2023-03-17T11:04:06.357Z,94.30
2023-03-17T11:06:42.794Z,93.30
2023-03-17T11:11:50.030Z,92.30
2023-03-17T11:14:20.406Z,81.30
2023-03-17T11:16:54.877Z,92.40
2023-03-17T11:19:34.316Z,93.00
2023-03-17T11:22:20.760Z,93.80
2023-03-17T11:25:27.144Z,93.50
2023-03-17T11:28:20.381Z,92.90
2023-03-17T11:31:19.859Z,93.20
2023-03-17T11:34:35.122Z,91.70
2023-03-17T11:37:26.324Z,92.10
2023-03-17T11:40:19.777Z,93.30
2023-03-17T11:43:11.443Z,93.90
2023-03-17T11:46:17.115Z,94.20
2023-03-17T11:49:00.900Z,94.00
2023-03-17T11:54:36.070Z,98.60
2023-03-17T11:57:20.668Z,96.20
2023-03-17T12:02:37.528Z,95.30
2023-03-17T12:05:17.087Z,93.40
2023-03-17T12:07:53.170Z,83.60
2023-03-17T12:10:42.264Z,85.00
2023-03-17T12:13:20.436Z,82.30
2023-03-17T12:18:37.653Z,82.60
2023-03-17T12:21:15.335Z,84.60
2023-03-17T12:23:52.351Z,96.00
2023-03-17T12:26:32.893Z,83.40
2023-03-17T12:29:17.103Z,95.40
2023-03-17T12:32:29.432Z,82.00
2023-03-17T12:34:58.793Z,80.60
2023-03-17T12:37:28.549Z,95.50
2023-03-17T12:40:06.921Z,90.90
2023-03-17T12:43:21.898Z,85.00
2023-03-17T12:46:04.614Z,95.80
2023-03-17T12:48:49.676Z,82.80
2023-03-17T12:52:02.619Z,81.50
2023-03-17T12:54:34.232Z,94.80
2023-03-17T12:57:18.539Z,83.10
2023-03-17T12:59:49.744Z,84.20
2023-03-17T13:02:28.881Z,82.90
2023-03-17T13:05:01.804Z,83.00
2023-03-17T13:07:40.403Z,92.70
2023-03-17T13:10:40.113Z,80.50
2023-03-17T13:13:21.729Z,94.00
2023-03-17T13:15:58.004Z,81.70
2023-03-17T13:18:47.165Z,95.10
2023-03-17T13:21:17.478Z,83.00
2023-03-17T13:24:13.679Z,78.90
2023-03-17T13:26:56.383Z,82.50
2023-03-17T13:29:32.908Z,94.10
2023-03-17T13:32:27.781Z,76.10
2023-03-17T13:35:17.585Z,81.00
2023-03-17T13:38:03.715Z,79.80
2023-03-17T13:40:55.763Z,82.00
2023-03-17T13:43:22.636Z,83.20
2023-03-17T13:48:47.534Z,94.10
2023-03-17T13:51:33.851Z,81.30
2023-03-17T13:54:33.975Z,79.20
2023-03-17T13:57:28.785Z,93.70
2023-03-17T14:00:31.661Z,78.70
2023-03-17T14:03:25.579Z,79.70
2023-03-17T14:05:55.696Z,79.50
2023-03-17T14:08:47.431Z,79.30
2023-03-17T14:11:31.547Z,79.70
2023-03-17T14:14:31.568Z,78.20
2023-03-17T14:17:29.275Z,78.20
2023-03-17T14:22:45.872Z,86.70
2023-03-17T14:25:26.161Z,73.00
2023-03-17T14:27:57.093Z,92.50
2023-03-17T14:30:29.625Z,92.10
2023-03-17T14:35:59.192Z,91.80
2023-03-17T14:38:50.030Z,78.50
2023-03-17T14:41:24.066Z,80.30
2023-03-17T14:43:54.418Z,93.40
2023-03-17T14:46:37.439Z,92.30
2023-03-17T14:49:20.383Z,75.70
2023-03-17T14:51:57.385Z,71.80
2023-03-17T14:54:31.348Z,92.60
2023-03-17T14:57:06.956Z,77.20
2023-03-17T14:59:40.544Z,91.60
2023-03-17T15:02:24.696Z,78.30
2023-03-17T15:10:07.336Z,92.70
2023-03-17T15:12:34.370Z,92.70
2023-03-17T15:15:12.581Z,78.80
2023-03-17T15:17:39.663Z,91.50
2023-03-17T15:20:14.620Z,92.80
2023-03-17T15:22:45.914Z,94.30
2023-03-17T15:25:44.978Z,79.90
2023-03-17T15:28:14.897Z,81.90
2023-03-17T15:30:48.525Z,94.50
2023-03-17T15:33:39.614Z,81.70
2023-03-17T15:36:07.708Z,93.40
2023-03-17T15:38:37.003Z,93.10
2023-03-17T15:46:04.401Z,82.80
2023-03-17T15:48:36.213Z,93.50
2023-03-17T15:53:32.315Z,96.20
2023-03-17T15:58:27.065Z,94.10
2023-03-17T16:00:57.313Z,91.50
2023-03-17T16:03:41.219Z,75.80
2023-03-17T16:06:20.898Z,82.40
2023-03-17T16:08:49.112Z,95.50
2023-03-17T16:11:19.999Z,93.10
2023-03-17T16:13:47.828Z,90.80
2023-03-17T16:16:35.800Z,76.80
2023-03-17T16:19:10.287Z,91.30
2023-03-17T16:21:37.467Z,90.90
2023-03-17T16:26:31.989Z,90.90
2023-03-17T16:28:58.985Z,84.10
2023-03-17T16:31:31.167Z,91.40
2023-03-17T16:33:58.690Z,90.80
2023-03-17T16:36:26.346Z,90.90
2023-03-17T16:38:53.685Z,90.70
2023-03-17T16:41:23.786Z,90.80
2023-03-17T16:43:59.748Z,92.80
2023-03-17T16:46:28.373Z,93.40
2023-03-17T16:48:56.130Z,93.40
2023-03-17T16:51:25.489Z,94.20
2023-03-17T16:53:52.464Z,93.40
2023-03-17T16:56:22.386Z,84.20
2023-03-17T16:58:49.697Z,94.40
2023-03-17T17:01:26.395Z,82.20
2023-03-17T17:03:54.174Z,93.80
2023-03-17T17:06:23.079Z,94.30
2023-03-17T17:08:51.538Z,82.40
2023-03-17T17:11:19.935Z,94.40
2023-03-17T17:13:48.774Z,94.60
2023-03-17T17:16:29.552Z,81.60
2023-03-17T17:18:58.387Z,94.70
2023-03-17T17:21:26.561Z,94.90
2023-03-17T17:23:54.124Z,96.40
2023-03-17T17:26:22.323Z,93.00
2023-03-17T17:28:49.675Z,95.70
2023-03-17T17:31:16.980Z,96.00
2023-03-17T17:33:44.020Z,96.80
2023-03-17T17:36:16.838Z,84.90
2023-03-17T17:38:44.720Z,97.30
2023-03-17T17:43:41.098Z,96.10
2023-03-17T17:46:16.751Z,87.70
2023-03-17T17:48:43.994Z,96.20
2023-03-17T17:51:11.599Z,96.20
2023-03-17T17:53:38.574Z,95.80
2023-03-17T17:58:33.605Z,95.90
2023-03-17T18:01:00.989Z,95.70
2023-03-17T18:03:28.380Z,95.60
2023-03-17T18:05:57.736Z,95.70
2023-03-17T18:08:25.963Z,96.10
2023-03-17T18:10:53.126Z,95.60
2023-03-17T18:13:20.077Z,95.70
2023-03-17T18:15:47.176Z,95.40
2023-03-17T18:18:14.410Z,95.50
2023-03-17T18:20:41.436Z,95.10
2023-03-17T18:23:10.888Z,94.70
2023-03-17T18:25:38.215Z,94.60
2023-03-17T18:28:05.346Z,94.70
2023-03-17T18:33:17.353Z,86.80
2023-03-17T18:35:48.048Z,96.90
2023-03-17T18:38:15.228Z,97.60
2023-03-17T18:43:10.147Z,99.00
2023-03-17T18:48:05.062Z,99.90
2023-03-17T18:50:33.072Z,99.90
2023-03-17T18:55:28.004Z,99.90
2023-03-17T18:57:55.115Z,99.90
2023-03-17T19:00:25.126Z,99.90
2023-03-17T19:02:52.886Z,99.90
2023-03-17T19:05:20.298Z,98.10
2023-03-17T19:07:47.483Z,99.90
2023-03-17T19:10:15.060Z,99.90
2023-03-17T19:12:42.710Z,99.90
2023-03-17T19:15:10.683Z,99.90
2023-03-17T19:20:07.288Z,99.90
2023-03-17T19:22:34.874Z,99.90
2023-03-17T19:25:04.429Z,99.90
2023-03-17T19:29:58.883Z,99.90
2023-03-17T19:32:26.022Z,99.90
2023-03-17T19:37:21.045Z,99.90
2023-03-17T19:39:48.318Z,99.90
2023-03-17T19:42:16.177Z,99.90
2023-03-17T19:44:43.861Z,99.90
2023-03-17T19:47:11.463Z,99.90
2023-03-17T19:52:07.762Z,99.90
2023-03-17T19:57:05.691Z,99.90
2023-03-17T19:59:32.812Z,99.90
2023-03-17T20:02:00.082Z,99.90
2023-03-17T20:04:27.177Z,99.90
2023-03-17T20:09:27.745Z,99.90
2023-03-17T20:11:56.513Z,99.90
2023-03-17T20:19:21.006Z,99.90
2023-03-17T20:21:48.106Z,99.90
2023-03-17T20:24:15.317Z,99.90
2023-03-17T20:26:44.645Z,99.90
2023-03-17T20:29:16.184Z,99.90
2023-03-17T20:31:43.852Z,99.90
2023-03-17T20:34:11.825Z,99.90
2023-03-17T20:36:42.408Z,99.90
2023-03-17T20:41:42.192Z,99.90
2023-03-17T20:46:36.870Z,99.90
2023-03-17T20:49:05.616Z,99.90
2023-03-17T20:51:33.949Z,99.90
2023-03-17T20:54:02.307Z,99.90
2023-03-17T20:56:30.737Z,99.90
2023-03-17T21:03:53.856Z,99.90
2023-03-17T21:06:21.221Z,99.90
2023-03-17T21:08:48.541Z,99.90
2023-03-17T21:11:19.100Z,99.90
2023-03-17T21:13:47.141Z,99.90
2023-03-17T21:16:22.526Z,99.90
2023-03-17T21:18:49.837Z,99.90
2023-03-17T21:21:18.134Z,99.90
2023-03-17T21:23:45.339Z,99.90
2023-03-17T21:26:14.212Z,99.90
2023-03-17T21:28:42.478Z,99.90
2023-03-17T21:31:12.102Z,99.90
2023-03-17T21:36:07.583Z,99.90
2023-03-17T21:41:39.539Z,99.90
2023-03-17T21:46:35.634Z,99.90
2023-03-17T21:49:02.697Z,99.90
2023-03-17T21:53:57.941Z,99.90
2023-03-17T21:58:52.880Z,99.90
2023-03-17T22:01:23.537Z,99.90
2023-03-17T22:03:52.237Z,99.90
2023-03-17T22:06:20.465Z,99.90
2023-03-17T22:11:18.740Z,99.90
2023-03-17T22:13:46.615Z,99.90
2023-03-17T22:16:15.267Z,99.90
2023-03-17T22:21:10.770Z,99.90
2023-03-17T22:23:42.281Z,99.90
2023-03-17T22:26:16.755Z,99.90
2023-03-17T22:28:45.492Z,99.90
2023-03-17T22:31:19.905Z,99.90
2023-03-17T22:36:16.474Z,99.90
2023-03-17T22:38:44.468Z,99.90
2023-03-17T22:41:19.597Z,99.90
2023-03-17T22:43:47.160Z,99.90
2023-03-17T22:46:15.421Z,99.90
2023-03-17T22:51:21.471Z,99.90
2023-03-17T22:53:50.745Z,99.90
2023-03-17T22:58:47.059Z,99.90
2023-03-17T23:01:16.457Z,99.90
2023-03-17T23:03:44.099Z,99.90
2023-03-17T23:06:13.087Z,99.90
2023-03-17T23:08:43.029Z,99.90
2023-03-17T23:11:14.585Z,99.90
2023-03-17T23:13:41.883Z,99.90
2023-03-17T23:16:10.060Z,99.90
2023-03-17T23:18:37.524Z,99.90
2023-03-17T23:21:06.635Z,99.90
2023-03-17T23:23:35.742Z,99.90
2023-03-17T23:26:03.043Z,99.90
2023-03-17T23:28:30.062Z,99.90
2023-03-17T23:30:57.458Z,99.90
2023-03-17T23:33:25.603Z,99.90
2023-03-17T23:35:53.520Z,99.90
2023-03-17T23:38:21.507Z,99.90
2023-03-17T23:43:17.000Z,99.90
2023-03-17T23:48:12.735Z,99.90
2023-03-17T23:50:41.449Z,99.90
2023-03-17T23:53:09.909Z,99.90
2023-03-17T23:55:37.160Z,99.90
2023-03-17T23:58:04.943Z,99.90
